createdAt,value
2024-03-12T00:01:21.399Z,5.50
2024-03-12T00:04:44.597Z,5.40
2024-03-12T00:08:06.598Z,5.30
2024-03-12T00:11:28.237Z,5.20
2024-03-12T00:14:49.842Z,5.20
2024-03-12T00:18:11.485Z,5.20
2024-03-12T00:21:34.468Z,5.20
2024-03-12T00:24:56.121Z,5.10
2024-03-12T00:28:17.918Z,5.10
2024-03-12T00:31:39.581Z,5.00
2024-03-12T00:35:01.226Z,5.00
2024-03-12T00:38:24.214Z,4.90
2024-03-12T00:41:45.843Z,4.80
2024-03-12T00:45:08.076Z,4.60
2024-03-12T00:48:29.756Z,4.50
2024-03-12T00:51:51.450Z,4.40
2024-03-12T00:55:14.471Z,4.40
2024-03-12T00:58:36.085Z,4.40
2024-03-12T01:01:57.888Z,4.30
2024-03-12T01:05:19.938Z,4.30
2024-03-12T01:08:41.716Z,4.40
2024-03-12T01:12:04.796Z,4.30
2024-03-12T01:15:26.924Z,4.40
2024-03-12T01:18:48.550Z,4.30
2024-03-12T01:22:10.250Z,4.20
2024-03-12T01:25:32.088Z,4.00
2024-03-12T01:28:55.095Z,3.90
2024-03-12T01:32:17.253Z,3.90
2024-03-12T01:35:38.986Z,3.80
2024-03-12T01:39:02.717Z,3.70
2024-03-12T01:42:24.418Z,3.70
2024-03-12T01:45:51.484Z,3.70
2024-03-12T01:49:14.019Z,3.60
2024-03-12T01:52:35.804Z,3.50
2024-03-12T01:55:57.426Z,3.50
2024-03-12T01:59:19.102Z,3.40
2024-03-12T02:02:43.278Z,3.30
2024-03-12T02:06:05.073Z,3.40
2024-03-12T02:09:26.772Z,3.40
2024-03-12T02:12:48.598Z,3.40
2024-03-12T02:16:10.910Z,3.40
2024-03-12T02:19:33.904Z,3.40
2024-03-12T02:22:56.220Z,3.40
2024-03-12T02:26:19.202Z,3.30
2024-03-12T02:29:40.839Z,3.20
2024-03-12T02:33:02.641Z,3.20
2024-03-12T02:36:24.379Z,3.10
2024-03-12T02:39:46.067Z,3.10
2024-03-12T02:43:09.174Z,3.10
2024-03-12T02:46:30.911Z,3.20
2024-03-12T02:49:52.557Z,3.20
2024-03-12T02:53:14.216Z,3.30
2024-03-12T02:56:35.863Z,3.40
2024-03-12T02:59:58.845Z,3.40
2024-03-12T03:03:20.726Z,3.50
2024-03-12T03:06:42.376Z,3.50
2024-03-12T03:10:04.528Z,3.60
2024-03-12T03:13:26.217Z,3.60
2024-03-12T03:16:49.196Z,3.60
2024-03-12T03:20:11.153Z,3.60
2024-03-12T03:23:32.761Z,3.70
2024-03-12T03:26:54.417Z,3.80
2024-03-12T03:30:16.057Z,4.10
2024-03-12T03:33:39.121Z,4.40
2024-03-12T03:37:01.000Z,4.60
2024-03-12T03:40:22.717Z,4.70
2024-03-12T03:43:44.421Z,4.90
2024-03-12T03:47:06.325Z,5.00
2024-03-12T03:50:29.337Z,5.20
2024-03-12T03:53:50.964Z,5.30
2024-03-12T03:57:12.596Z,5.40
2024-03-12T04:00:34.435Z,5.50
2024-03-12T04:03:56.181Z,5.50
2024-03-12T04:07:19.259Z,5.60
2024-03-12T04:10:41.101Z,5.70
2024-03-12T04:14:03.030Z,5.70
2024-03-12T04:17:25.656Z,5.80
2024-03-12T04:20:47.292Z,5.80
2024-03-12T04:24:10.366Z,5.70
2024-03-12T04:27:32.050Z,5.60
2024-03-12T04:30:53.874Z,5.50
2024-03-12T04:34:15.590Z,5.50
2024-03-12T04:37:37.298Z,5.50
2024-03-12T04:41:00.273Z,5.40
2024-03-12T04:44:21.891Z,5.50
2024-03-12T04:47:43.763Z,5.60
2024-03-12T04:51:05.651Z,5.70
2024-03-12T04:54:27.344Z,5.80
2024-03-12T04:57:50.403Z,5.80
2024-03-12T05:01:12.138Z,5.90
2024-03-12T05:04:33.813Z,6.00
2024-03-12T05:07:55.480Z,6.10
2024-03-12T05:11:17.173Z,6.10
2024-03-12T05:14:40.193Z,6.20
2024-03-12T05:18:01.857Z,6.20
2024-03-12T05:21:23.640Z,6.20
2024-03-12T05:24:45.468Z,6.30
2024-03-12T05:28:07.212Z,6.30
2024-03-12T05:31:30.274Z,6.30
2024-03-12T05:34:51.893Z,6.30
2024-03-12T05:38:13.548Z,6.40
2024-03-12T05:41:35.146Z,6.40
2024-03-12T05:44:56.728Z,6.40
2024-03-12T05:48:19.643Z,6.40
2024-03-12T05:51:41.242Z,6.40
2024-03-12T05:55:03.239Z,6.40
2024-03-12T05:58:24.999Z,6.40
2024-03-12T06:01:47.141Z,6.40
2024-03-12T06:05:10.642Z,6.40
2024-03-12T06:08:32.318Z,6.40
2024-03-12T06:11:54.010Z,6.40
2024-03-12T06:15:15.666Z,6.40
2024-03-12T06:18:37.378Z,6.40
2024-03-12T06:22:00.465Z,6.50
2024-03-12T06:25:22.188Z,6.50
2024-03-12T06:28:43.998Z,6.50
2024-03-12T06:32:05.660Z,6.60
2024-03-12T06:35:27.298Z,6.60
2024-03-12T06:38:50.278Z,6.70
2024-03-12T06:42:12.001Z,6.70
2024-03-12T06:45:33.698Z,6.80
2024-03-12T06:48:55.425Z,6.80
2024-03-12T06:52:17.366Z,6.90
2024-03-12T06:55:40.345Z,6.90
2024-03-12T06:59:01.967Z,6.90
2024-03-12T07:02:23.589Z,7.00
2024-03-12T07:05:45.266Z,7.00
2024-03-12T07:09:06.895Z,7.10
2024-03-12T07:12:30.095Z,7.20
2024-03-12T07:15:51.800Z,7.40
2024-03-12T07:19:15.604Z,7.50
2024-03-12T07:22:37.386Z,7.70
2024-03-12T07:25:59.020Z,7.70
2024-03-12T07:29:21.993Z,7.80
2024-03-12T07:32:43.708Z,7.80
2024-03-12T07:36:05.841Z,7.90
2024-03-12T07:39:27.917Z,7.90
2024-03-12T07:42:49.630Z,7.80
2024-03-12T07:46:12.833Z,7.90
2024-03-12T07:49:34.583Z,8.00
2024-03-12T07:52:56.218Z,8.20
2024-03-12T07:56:18.894Z,8.20
2024-03-12T07:59:40.529Z,8.30
2024-03-12T08:03:03.688Z,8.30
2024-03-12T08:06:25.340Z,8.20
2024-03-12T08:09:47.372Z,8.10
2024-03-12T08:13:09.150Z,8.00
2024-03-12T08:16:31.008Z,7.90
2024-03-12T08:19:53.993Z,7.70
2024-03-12T08:23:15.883Z,7.70
2024-03-12T08:26:37.600Z,7.70
2024-03-12T08:29:59.235Z,7.70
2024-03-12T08:33:20.905Z,7.80
2024-03-12T08:36:43.953Z,7.80
2024-03-12T08:40:06.121Z,7.90
2024-03-12T08:43:27.770Z,8.00
2024-03-12T08:46:49.406Z,7.90
2024-03-12T08:50:11.095Z,7.80
2024-03-12T08:53:34.096Z,7.70
2024-03-12T08:56:55.750Z,7.60
2024-03-12T09:00:17.500Z,7.70
2024-03-12T09:03:39.182Z,7.90
2024-03-12T09:07:01.019Z,7.90
2024-03-12T09:10:24.146Z,7.90
2024-03-12T09:13:45.955Z,7.90
2024-03-12T09:17:07.681Z,7.90
2024-03-12T09:20:29.320Z,8.00
2024-03-12T09:23:57.083Z,8.10
2024-03-12T09:27:24.980Z,8.40
2024-03-12T09:30:46.628Z,8.80
2024-03-12T09:34:08.499Z,9.10
2024-03-12T09:37:30.247Z,9.20
2024-03-12T09:40:54.035Z,9.50
2024-03-12T09:44:17.087Z,10.20
2024-03-12T09:47:39.470Z,10.70
2024-03-12T09:51:01.276Z,10.80
2024-03-12T09:54:23.229Z,10.60
2024-03-12T09:57:44.927Z,10.50
2024-03-12T10:01:08.233Z,10.50
2024-03-12T10:04:29.949Z,10.50
2024-03-12T10:08:08.496Z,10.40
2024-03-12T10:11:31.106Z,10.20
2024-03-12T10:14:53.123Z,10.10
2024-03-12T10:18:16.764Z,9.80
2024-03-12T10:21:38.653Z,9.50
2024-03-12T10:25:07.348Z,9.10
2024-03-12T10:28:29.180Z,8.90
2024-03-12T10:31:50.862Z,8.80
2024-03-12T10:35:19.375Z,8.90
2024-03-12T10:38:41.845Z,8.90
2024-03-12T10:42:03.921Z,9.00
2024-03-12T10:45:25.557Z,9.20
2024-03-12T10:48:48.237Z,9.20
2024-03-12T10:52:11.360Z,9.20
2024-03-12T10:55:33.081Z,9.00
2024-03-12T10:58:54.839Z,9.10
2024-03-12T11:02:16.550Z,9.00
2024-03-12T11:05:38.988Z,9.00
2024-03-12T11:09:02.525Z,9.10
2024-03-12T11:12:24.283Z,9.10
2024-03-12T11:15:45.950Z,9.20
2024-03-12T11:19:17.123Z,9.40
2024-03-12T11:22:41.909Z,9.50
2024-03-12T11:26:08.069Z,9.70
2024-03-12T11:29:48.139Z,9.90
2024-03-12T11:33:09.794Z,9.90
2024-03-12T11:36:39.628Z,9.90
2024-03-12T11:40:19.950Z,10.00
2024-03-12T11:43:43.191Z,10.20
2024-03-12T11:47:05.080Z,10.30
2024-03-12T11:50:30.676Z,10.40
2024-03-12T11:53:53.412Z,10.40
2024-03-12T11:57:19.985Z,10.40
2024-03-12T12:00:43.013Z,10.20
2024-03-12T12:04:05.594Z,10.00
2024-03-12T12:07:27.494Z,9.90
2024-03-12T12:10:59.286Z,10.00
2024-03-12T12:14:21.212Z,10.10
2024-03-12T12:17:45.667Z,10.10
2024-03-12T12:21:10.434Z,10.00
2024-03-12T12:24:32.119Z,9.80
2024-03-12T12:27:54.768Z,9.50
2024-03-12T12:31:16.811Z,9.50
2024-03-12T12:34:39.867Z,9.50
2024-03-12T12:38:01.632Z,9.50
2024-03-12T12:41:23.266Z,9.30
2024-03-12T12:44:49.755Z,8.90
2024-03-12T12:48:11.451Z,8.90
2024-03-12T12:51:37.269Z,8.80
2024-03-12T12:54:59.339Z,8.80
2024-03-12T12:58:23.742Z,8.80
2024-03-12T13:01:45.526Z,9.10
2024-03-12T13:05:07.911Z,9.30
2024-03-12T13:08:31.408Z,9.30
2024-03-12T13:11:53.042Z,9.30
2024-03-12T13:15:24.175Z,9.30
2024-03-12T13:18:46.555Z,9.30
2024-03-12T13:22:13.559Z,9.30
2024-03-12T13:25:39.525Z,9.20
2024-03-12T13:29:01.157Z,9.30
2024-03-12T13:32:22.787Z,9.40
2024-03-12T13:35:44.454Z,9.70
2024-03-12T13:39:06.124Z,10.00
2024-03-12T13:42:29.099Z,10.40
2024-03-12T13:45:51.633Z,10.70
2024-03-12T13:49:14.417Z,11.20
2024-03-12T13:52:36.984Z,11.90
2024-03-12T13:55:59.570Z,12.20
2024-03-12T13:59:23.122Z,12.30
2024-03-12T14:02:44.821Z,12.40
2024-03-12T14:06:06.816Z,12.20
2024-03-12T14:09:28.429Z,11.70
2024-03-12T14:12:50.110Z,11.20
2024-03-12T14:16:13.328Z,10.90
2024-03-12T14:19:35.179Z,11.00
2024-03-12T14:22:56.814Z,10.90
2024-03-12T14:26:18.444Z,10.80
2024-03-12T14:29:40.101Z,10.70
2024-03-12T14:33:03.206Z,10.50
2024-03-12T14:36:24.882Z,10.40
2024-03-12T14:39:46.616Z,10.30
2024-03-12T14:43:08.356Z,10.10
2024-03-12T14:46:30.069Z,10.10
2024-03-12T14:49:54.135Z,10.00
2024-03-12T14:53:15.845Z,9.90
2024-03-12T14:56:37.492Z,9.90
2024-03-12T14:59:59.362Z,9.80
2024-03-12T15:03:21.803Z,9.80
2024-03-12T15:06:45.024Z,9.70
2024-03-12T15:10:07.583Z,9.60
2024-03-12T15:13:29.295Z,9.50
2024-03-12T15:16:50.947Z,9.50
2024-03-12T15:20:12.578Z,9.60
2024-03-12T15:23:35.549Z,9.70
2024-03-12T15:26:57.284Z,9.80
2024-03-12T15:30:19.377Z,9.90
2024-03-12T15:33:41.338Z,10.00
2024-03-12T15:37:03.183Z,10.00
2024-03-12T15:40:27.699Z,9.80
2024-03-12T15:43:50.550Z,9.50
2024-03-12T15:47:12.169Z,9.40
2024-03-12T15:50:34.081Z,9.30
2024-03-12T15:54:00.063Z,9.20
2024-03-12T15:57:24.314Z,9.20
2024-03-12T16:00:46.735Z,9.20
2024-03-12T16:04:08.683Z,9.20
2024-03-12T16:07:31.020Z,9.30
2024-03-12T16:10:53.166Z,9.30
2024-03-12T16:14:16.212Z,9.30
2024-03-12T16:17:39.167Z,9.40
2024-03-12T16:21:01.824Z,9.40
2024-03-12T16:24:23.452Z,9.40
2024-03-12T16:27:45.138Z,9.50
2024-03-12T16:31:08.242Z,9.40
2024-03-12T16:34:32.125Z,9.30
2024-03-12T16:37:54.128Z,9.20
2024-03-12T16:41:15.935Z,9.00
2024-03-12T16:44:37.561Z,8.90
2024-03-12T16:48:00.620Z,8.70
2024-03-12T16:51:23.543Z,8.50
2024-03-12T16:54:45.492Z,8.40
2024-03-12T16:58:07.993Z,8.30
2024-03-12T17:01:30.605Z,8.20
2024-03-12T17:04:58.410Z,8.20
2024-03-12T17:08:20.357Z,8.20
2024-03-12T17:11:42.254Z,8.10
2024-03-12T17:15:04.592Z,8.00
2024-03-12T17:18:26.241Z,7.90
2024-03-12T17:21:49.711Z,7.90
2024-03-12T17:25:11.968Z,7.90
2024-03-12T17:28:34.963Z,7.80
2024-03-12T17:31:56.808Z,7.70
2024-03-12T17:35:19.056Z,7.70
2024-03-12T17:38:42.281Z,7.60
2024-03-12T17:42:04.272Z,7.60
2024-03-12T17:45:26.170Z,7.60
2024-03-12T17:48:48.643Z,7.50
2024-03-12T17:52:10.880Z,7.50
2024-03-12T17:55:34.501Z,7.50
2024-03-12T17:58:56.398Z,7.50
2024-03-12T18:02:18.156Z,7.50
2024-03-12T18:05:39.964Z,7.50
2024-03-12T18:09:05.740Z,7.40
2024-03-12T18:12:29.348Z,7.50
2024-03-12T18:15:50.994Z,7.40
2024-03-12T18:19:12.672Z,7.40
2024-03-12T18:22:34.303Z,7.40
2024-03-12T18:25:55.949Z,7.30
2024-03-12T18:29:18.930Z,7.30
2024-03-12T18:32:40.602Z,7.30
2024-03-12T18:36:02.261Z,7.20
2024-03-12T18:39:23.898Z,7.20
2024-03-12T18:42:45.741Z,7.20
2024-03-12T18:46:08.846Z,7.20
2024-03-12T18:49:30.672Z,7.20
2024-03-12T18:52:52.690Z,7.20
2024-03-12T18:56:14.861Z,7.20
2024-03-12T18:59:36.750Z,7.20
2024-03-12T19:03:05.365Z,7.30
2024-03-12T19:06:27.875Z,7.20
2024-03-12T19:09:50.156Z,7.20
2024-03-12T19:13:12.114Z,7.30
2024-03-12T19:16:34.281Z,7.40
2024-03-12T19:19:57.720Z,7.30
2024-03-12T19:23:19.679Z,7.30
2024-03-12T19:26:41.330Z,7.30
2024-03-12T19:30:03.371Z,7.30
2024-03-12T19:33:25.598Z,7.30
2024-03-12T19:36:48.704Z,7.30
2024-03-12T19:40:11.067Z,7.30
2024-03-12T19:43:33.206Z,7.20
2024-03-12T19:46:55.250Z,7.10
2024-03-12T19:50:19.707Z,7.00
2024-03-12T19:53:43.407Z,6.80
2024-03-12T19:57:05.110Z,6.80
2024-03-12T20:00:27.531Z,6.70
2024-03-12T20:03:49.200Z,6.80
2024-03-12T20:07:13.340Z,6.80
2024-03-12T20:10:39.224Z,6.70
2024-03-12T20:14:00.982Z,6.70
2024-03-12T20:17:23.037Z,6.70
2024-03-12T20:20:46.603Z,6.60
2024-03-12T20:24:08.844Z,6.60
2024-03-12T20:27:31.824Z,6.60
2024-03-12T20:30:57.881Z,6.50
2024-03-12T20:34:21.817Z,6.50
2024-03-12T20:37:43.516Z,6.50
2024-03-12T20:41:09.067Z,6.50
2024-03-12T20:44:32.163Z,6.50
2024-03-12T20:47:53.900Z,6.50
2024-03-12T20:51:15.541Z,6.40
2024-03-12T20:54:37.182Z,6.40
2024-03-12T20:57:58.839Z,6.40
2024-03-12T21:01:21.871Z,6.30
2024-03-12T21:04:43.812Z,6.40
2024-03-12T21:08:05.555Z,6.30
2024-03-12T21:11:27.218Z,6.30
2024-03-12T21:14:48.865Z,6.40
2024-03-12T21:18:12.756Z,6.40
2024-03-12T21:21:34.401Z,6.40
2024-03-12T21:24:56.038Z,6.30
2024-03-12T21:28:17.742Z,6.30
2024-03-12T21:31:39.445Z,6.30
2024-03-12T21:35:02.403Z,6.30
2024-03-12T21:38:24.020Z,6.20
2024-03-12T21:41:45.791Z,6.30
2024-03-12T21:45:07.722Z,6.20
2024-03-12T21:48:29.363Z,6.20
2024-03-12T21:51:52.352Z,6.20
2024-03-12T21:55:14.393Z,6.20
2024-03-12T21:58:37.642Z,6.20
2024-03-12T22:01:59.348Z,6.20
2024-03-12T22:05:21.500Z,6.20
2024-03-12T22:08:44.631Z,6.20
2024-03-12T22:12:06.351Z,6.10
2024-03-12T22:15:27.993Z,6.20
2024-03-12T22:18:49.754Z,6.10
2024-03-12T22:22:11.470Z,6.10
2024-03-12T22:25:34.525Z,6.10
2024-03-12T22:28:56.182Z,6.10
2024-03-12T22:32:17.825Z,6.10
2024-03-12T22:35:39.592Z,6.10
2024-03-12T22:39:01.495Z,6.10
2024-03-12T22:42:25.080Z,6.10
2024-03-12T22:45:47.381Z,6.10
2024-03-12T22:49:09.197Z,6.00
2024-03-12T22:52:31.206Z,6.00
2024-03-12T22:55:53.234Z,6.00
2024-03-12T22:59:16.627Z,6.00
2024-03-12T23:02:38.959Z,6.00
2024-03-12T23:06:01.025Z,6.00
2024-03-12T23:09:23.166Z,6.00
2024-03-12T23:12:45.248Z,6.00
2024-03-12T23:16:08.336Z,6.00
2024-03-12T23:19:30.014Z,6.00
2024-03-12T23:22:51.756Z,5.90
2024-03-12T23:26:13.440Z,5.90
2024-03-12T23:29:35.096Z,5.90
2024-03-12T23:32:58.397Z,5.90
2024-03-12T23:36:20.172Z,5.90
2024-03-12T23:39:41.977Z,5.90
2024-03-12T23:43:04.022Z,5.90
2024-03-12T23:46:26.430Z,5.90
2024-03-12T23:49:50.008Z,5.90
2024-03-12T23:53:11.748Z,5.90
2024-03-12T23:56:33.395Z,5.90
2024-03-12T23:59:55.037Z,5.80
